sensor_id;sensor_type;location;lat;lon;timestamp;temperature;humidity
17208;DHT22;8720;48.488;9.202;2023-03-01T00:01:16;1.50;44.10
17208;DHT22;8720;48.488;9.202;2023-03-01T00:03:45;1.50;44.10
17208;DHT22;8720;48.488;9.202;2023-03-01T00:06:13;1.50;44.10
17208;DHT22;8720;48.488;9.202;2023-03-01T00:08:40;1.50;44.00
17208;DHT22;8720;48.488;9.202;2023-03-01T00:11:11;1.50;44.00
17208;DHT22;8720;48.488;9.202;2023-03-01T00:13:42;1.50;44.00
17208;DHT22;8720;48.488;9.202;2023-03-01T00:16:12;1.50;44.10
17208;DHT22;8720;48.488;9.202;2023-03-01T00:18:41;1.50;44.00
17208;DHT22;8720;48.488;9.202;2023-03-01T00:21:08;1.50;43.90
17208;DHT22;8720;48.488;9.202;2023-03-01T00:23:37;1.50;43.90
17208;DHT22;8720;48.488;9.202;2023-03-01T00:26:07;1.40;43.90
17208;DHT22;8720;48.488;9.202;2023-03-01T00:28:37;1.40;43.90
17208;DHT22;8720;48.488;9.202;2023-03-01T00:31:08;1.30;43.80
17208;DHT22;8720;48.488;9.202;2023-03-01T00:33:37;1.30;43.90
17208;DHT22;8720;48.488;9.202;2023-03-01T00:36:06;1.30;43.90
17208;DHT22;8720;48.488;9.202;2023-03-01T00:38:35;1.20;43.90
17208;DHT22;8720;48.488;9.202;2023-03-01T00:41:04;1.20;43.90
17208;DHT22;8720;48.488;9.202;2023-03-01T00:43:32;1.20;44.10
17208;DHT22;8720;48.488;9.202;2023-03-01T00:46:02;1.10;43.90
17208;DHT22;8720;48.488;9.202;2023-03-01T00:48:31;1.10;44.00
17208;DHT22;8720;48.488;9.202;2023-03-01T00:51:04;1.00;44.00
17208;DHT22;8720;48.488;9.202;2023-03-01T00:53:33;1.00;44.10
17208;DHT22;8720;48.488;9.202;2023-03-01T00:56:01;1.00;44.10
17208;DHT22;8720;48.488;9.202;2023-03-01T00:58:29;0.90;44.10
17208;DHT22;8720;48.488;9.202;2023-03-01T01:00:57;0.90;44.20
17208;DHT22;8720;48.488;9.202;2023-03-01T01:03:24;0.80;44.20
17208;DHT22;8720;48.488;9.202;2023-03-01T01:05:54;0.80;44.30
17208;DHT22;8720;48.488;9.202;2023-03-01T01:08:21;0.80;44.40
17208;DHT22;8720;48.488;9.202;2023-03-01T01:10:48;0.80;44.50
17208;DHT22;8720;48.488;9.202;2023-03-01T01:13:16;0.70;44.40
17208;DHT22;8720;48.488;9.202;2023-03-01T01:15:43;0.70;44.50
17208;DHT22;8720;48.488;9.202;2023-03-01T01:18:12;0.70;44.60
17208;DHT22;8720;48.488;9.202;2023-03-01T01:20:39;0.70;44.70
17208;DHT22;8720;48.488;9.202;2023-03-01T01:23:08;0.70;44.70
17208;DHT22;8720;48.488;9.202;2023-03-01T01:25:36;0.70;44.80
17208;DHT22;8720;48.488;9.202;2023-03-01T01:28:06;0.70;44.90
17208;DHT22;8720;48.488;9.202;2023-03-01T01:30:33;0.70;45.00
17208;DHT22;8720;48.488;9.202;2023-03-01T01:33:01;0.70;45.00
17208;DHT22;8720;48.488;9.202;2023-03-01T01:35:28;0.70;45.10
17208;DHT22;8720;48.488;9.202;2023-03-01T01:37:56;0.70;45.20
17208;DHT22;8720;48.488;9.202;2023-03-01T01:40:27;0.80;45.30
17208;DHT22;8720;48.488;9.202;2023-03-01T01:42:55;0.80;45.40
17208;DHT22;8720;48.488;9.202;2023-03-01T01:45:29;0.80;45.30
17208;DHT22;8720;48.488;9.202;2023-03-01T01:48:03;0.90;45.50
17208;DHT22;8720;48.488;9.202;2023-03-01T01:50:38;0.90;45.40
17208;DHT22;8720;48.488;9.202;2023-03-01T01:53:12;1.00;45.50
17208;DHT22;8720;48.488;9.202;2023-03-01T01:55:46;1.00;45.40
17208;DHT22;8720;48.488;9.202;2023-03-01T01:58:20;1.10;45.50
17208;DHT22;8720;48.488;9.202;2023-03-01T02:00:48;1.10;45.40
17208;DHT22;8720;48.488;9.202;2023-03-01T02:03:19;1.10;45.40
17208;DHT22;8720;48.488;9.202;2023-03-01T02:05:55;1.20;45.50
17208;DHT22;8720;48.488;9.202;2023-03-01T02:08:29;1.20;45.50
17208;DHT22;8720;48.488;9.202;2023-03-01T02:11:00;1.30;45.50
17208;DHT22;8720;48.488;9.202;2023-03-01T02:13:30;1.30;45.40
17208;DHT22;8720;48.488;9.202;2023-03-01T02:15:59;1.40;45.50
17208;DHT22;8720;48.488;9.202;2023-03-01T02:18:30;1.40;45.40
17208;DHT22;8720;48.488;9.202;2023-03-01T02:21:11;1.50;45.50
17208;DHT22;8720;48.488;9.202;2023-03-01T02:23:56;1.50;45.50
17208;DHT22;8720;48.488;9.202;2023-03-01T02:26:31;1.60;45.50
17208;DHT22;8720;48.488;9.202;2023-03-01T02:29:05;1.60;45.50
17208;DHT22;8720;48.488;9.202;2023-03-01T02:31:33;1.60;45.40
17208;DHT22;8720;48.488;9.202;2023-03-01T02:34:13;1.70;45.40
17208;DHT22;8720;48.488;9.202;2023-03-01T02:36:45;1.70;46.00
17208;DHT22;8720;48.488;9.202;2023-03-01T02:39:19;1.80;45.30
17208;DHT22;8720;48.488;9.202;2023-03-01T02:41:52;1.80;45.30
17208;DHT22;8720;48.488;9.202;2023-03-01T02:44:24;1.80;45.30
17208;DHT22;8720;48.488;9.202;2023-03-01T02:46:53;1.90;45.20
17208;DHT22;8720;48.488;9.202;2023-03-01T02:49:26;1.90;45.20
17208;DHT22;8720;48.488;9.202;2023-03-01T02:52:20;1.90;45.20
17208;DHT22;8720;48.488;9.202;2023-03-01T02:54:59;1.90;45.30
17208;DHT22;8720;48.488;9.202;2023-03-01T02:57:30;1.90;45.10
17208;DHT22;8720;48.488;9.202;2023-03-01T03:00:05;1.90;45.10
17208;DHT22;8720;48.488;9.202;2023-03-01T03:05:06;1.90;45.00
17208;DHT22;8720;48.488;9.202;2023-03-01T03:07:39;2.00;45.10
17208;DHT22;8720;48.488;9.202;2023-03-01T03:10:11;2.00;45.10
17208;DHT22;8720;48.488;9.202;2023-03-01T03:12:41;2.00;45.10
17208;DHT22;8720;48.488;9.202;2023-03-01T03:15:11;2.00;45.10
17208;DHT22;8720;48.488;9.202;2023-03-01T03:17:40;2.00;45.20
17208;DHT22;8720;48.488;9.202;2023-03-01T03:20:11;2.00;45.10
17208;DHT22;8720;48.488;9.202;2023-03-01T03:22:45;2.00;45.10
17208;DHT22;8720;48.488;9.202;2023-03-01T03:25:13;2.00;45.70
17208;DHT22;8720;48.488;9.202;2023-03-01T03:27:42;2.10;45.20
17208;DHT22;8720;48.488;9.202;2023-03-01T03:30:14;2.00;45.10
17208;DHT22;8720;48.488;9.202;2023-03-01T03:32:45;2.10;45.20
17208;DHT22;8720;48.488;9.202;2023-03-01T03:35:19;2.10;45.20
17208;DHT22;8720;48.488;9.202;2023-03-01T03:37:48;2.10;45.20
17208;DHT22;8720;48.488;9.202;2023-03-01T03:40:33;2.10;45.20
17208;DHT22;8720;48.488;9.202;2023-03-01T03:43:02;2.10;45.20
17208;DHT22;8720;48.488;9.202;2023-03-01T03:45:32;2.10;45.20
17208;DHT22;8720;48.488;9.202;2023-03-01T03:48:01;2.10;45.20
17208;DHT22;8720;48.488;9.202;2023-03-01T03:50:30;2.10;45.30
17208;DHT22;8720;48.488;9.202;2023-03-01T03:52:59;2.10;45.20
17208;DHT22;8720;48.488;9.202;2023-03-01T03:55:27;2.10;45.20
17208;DHT22;8720;48.488;9.202;2023-03-01T03:57:57;2.20;45.30
17208;DHT22;8720;48.488;9.202;2023-03-01T04:00:28;2.20;45.30
17208;DHT22;8720;48.488;9.202;2023-03-01T04:02:57;2.20;45.20
17208;DHT22;8720;48.488;9.202;2023-03-01T04:05:24;2.20;45.20
17208;DHT22;8720;48.488;9.202;2023-03-01T04:07:52;2.20;45.30
17208;DHT22;8720;48.488;9.202;2023-03-01T04:10:34;2.10;45.20
17208;DHT22;8720;48.488;9.202;2023-03-01T04:13:03;2.10;45.20
17208;DHT22;8720;48.488;9.202;2023-03-01T04:15:32;2.10;45.20
17208;DHT22;8720;48.488;9.202;2023-03-01T04:18:02;2.10;45.30
17208;DHT22;8720;48.488;9.202;2023-03-01T04:20:32;2.10;45.30
17208;DHT22;8720;48.488;9.202;2023-03-01T04:23:03;2.10;45.30
17208;DHT22;8720;48.488;9.202;2023-03-01T04:25:39;2.10;45.40
17208;DHT22;8720;48.488;9.202;2023-03-01T04:28:08;2.10;45.30
17208;DHT22;8720;48.488;9.202;2023-03-01T04:30:36;2.10;45.40
17208;DHT22;8720;48.488;9.202;2023-03-01T04:33:07;2.10;45.40
17208;DHT22;8720;48.488;9.202;2023-03-01T04:35:37;2.10;45.50
17208;DHT22;8720;48.488;9.202;2023-03-01T04:38:06;2.20;45.50
17208;DHT22;8720;48.488;9.202;2023-03-01T04:40:34;2.20;45.50
17208;DHT22;8720;48.488;9.202;2023-03-01T04:43:02;2.20;45.40
17208;DHT22;8720;48.488;9.202;2023-03-01T04:45:32;2.20;45.50
17208;DHT22;8720;48.488;9.202;2023-03-01T04:48:01;2.30;45.50
17208;DHT22;8720;48.488;9.202;2023-03-01T04:50:31;2.30;45.50
17208;DHT22;8720;48.488;9.202;2023-03-01T04:52:58;2.30;45.40
17208;DHT22;8720;48.488;9.202;2023-03-01T04:55:26;2.40;45.50
17208;DHT22;8720;48.488;9.202;2023-03-01T04:57:54;2.40;45.50
17208;DHT22;8720;48.488;9.202;2023-03-01T05:00:22;2.40;45.40
17208;DHT22;8720;48.488;9.202;2023-03-01T05:02:52;2.40;45.40
17208;DHT22;8720;48.488;9.202;2023-03-01T05:05:22;2.40;45.40
17208;DHT22;8720;48.488;9.202;2023-03-01T05:07:58;2.40;45.40
17208;DHT22;8720;48.488;9.202;2023-03-01T05:10:29;2.40;45.40
17208;DHT22;8720;48.488;9.202;2023-03-01T05:13:02;2.40;45.40
17208;DHT22;8720;48.488;9.202;2023-03-01T05:15:31;2.40;45.30
17208;DHT22;8720;48.488;9.202;2023-03-01T05:17:59;2.40;45.30
17208;DHT22;8720;48.488;9.202;2023-03-01T05:20:27;2.40;45.30
17208;DHT22;8720;48.488;9.202;2023-03-01T05:22:59;2.40;45.30
17208;DHT22;8720;48.488;9.202;2023-03-01T05:25:31;2.40;45.40
17208;DHT22;8720;48.488;9.202;2023-03-01T05:28:00;2.40;45.40
17208;DHT22;8720;48.488;9.202;2023-03-01T05:30:30;2.40;45.40
17208;DHT22;8720;48.488;9.202;2023-03-01T05:32:58;2.40;45.50
17208;DHT22;8720;48.488;9.202;2023-03-01T05:35:26;2.40;45.40
17208;DHT22;8720;48.488;9.202;2023-03-01T05:37:56;2.40;45.40
17208;DHT22;8720;48.488;9.202;2023-03-01T05:40:24;2.40;45.50
17208;DHT22;8720;48.488;9.202;2023-03-01T05:42:53;2.40;45.50
17208;DHT22;8720;48.488;9.202;2023-03-01T05:45:22;2.40;45.50
17208;DHT22;8720;48.488;9.202;2023-03-01T05:47:51;2.40;45.50
17208;DHT22;8720;48.488;9.202;2023-03-01T05:50:22;2.40;45.50
17208;DHT22;8720;48.488;9.202;2023-03-01T05:52:52;2.30;45.50
17208;DHT22;8720;48.488;9.202;2023-03-01T05:55:25;2.30;45.60
17208;DHT22;8720;48.488;9.202;2023-03-01T05:57:53;2.30;45.60
17208;DHT22;8720;48.488;9.202;2023-03-01T06:00:21;2.30;45.70
17208;DHT22;8720;48.488;9.202;2023-03-01T06:02:49;2.30;45.70
17208;DHT22;8720;48.488;9.202;2023-03-01T06:05:17;2.30;45.70
17208;DHT22;8720;48.488;9.202;2023-03-01T06:07:45;2.30;45.80
17208;DHT22;8720;48.488;9.202;2023-03-01T06:10:13;2.30;45.70
17208;DHT22;8720;48.488;9.202;2023-03-01T06:12:43;2.30;46.40
17208;DHT22;8720;48.488;9.202;2023-03-01T06:15:12;2.30;45.80
17208;DHT22;8720;48.488;9.202;2023-03-01T06:17:42;2.30;45.80
17208;DHT22;8720;48.488;9.202;2023-03-01T06:20:13;2.30;45.90
17208;DHT22;8720;48.488;9.202;2023-03-01T06:22:42;2.30;45.90
17208;DHT22;8720;48.488;9.202;2023-03-01T06:25:11;2.40;46.00
17208;DHT22;8720;48.488;9.202;2023-03-01T06:27:42;2.40;46.00
17208;DHT22;8720;48.488;9.202;2023-03-01T06:30:12;2.40;46.00
17208;DHT22;8720;48.488;9.202;2023-03-01T06:32:41;2.40;45.90
17208;DHT22;8720;48.488;9.202;2023-03-01T06:35:10;2.40;45.90
17208;DHT22;8720;48.488;9.202;2023-03-01T06:37:38;2.50;46.00
17208;DHT22;8720;48.488;9.202;2023-03-01T06:40:08;2.50;45.90
17208;DHT22;8720;48.488;9.202;2023-03-01T06:42:38;2.50;45.90
17208;DHT22;8720;48.488;9.202;2023-03-01T06:45:10;2.50;45.80
17208;DHT22;8720;48.488;9.202;2023-03-01T06:47:37;2.50;45.90
17208;DHT22;8720;48.488;9.202;2023-03-01T06:50:05;2.50;45.80
17208;DHT22;8720;48.488;9.202;2023-03-01T06:52:33;2.60;45.80
17208;DHT22;8720;48.488;9.202;2023-03-01T06:55:01;2.50;45.70
17208;DHT22;8720;48.488;9.202;2023-03-01T06:57:28;2.60;45.80
17208;DHT22;8720;48.488;9.202;2023-03-01T06:59:55;2.60;45.70
17208;DHT22;8720;48.488;9.202;2023-03-01T07:02:24;2.60;45.70
17208;DHT22;8720;48.488;9.202;2023-03-01T07:04:52;2.60;45.80
17208;DHT22;8720;48.488;9.202;2023-03-01T07:07:19;2.60;45.80
17208;DHT22;8720;48.488;9.202;2023-03-01T07:09:48;2.60;45.80
17208;DHT22;8720;48.488;9.202;2023-03-01T07:12:16;2.60;45.80
17208;DHT22;8720;48.488;9.202;2023-03-01T07:14:44;2.60;45.70
17208;DHT22;8720;48.488;9.202;2023-03-01T07:17:11;2.60;45.80
17208;DHT22;8720;48.488;9.202;2023-03-01T07:19:40;2.60;46.40
17208;DHT22;8720;48.488;9.202;2023-03-01T07:22:07;2.70;46.00
17208;DHT22;8720;48.488;9.202;2023-03-01T07:24:35;2.70;45.90
17208;DHT22;8720;48.488;9.202;2023-03-01T07:27:02;2.80;46.10
17208;DHT22;8720;48.488;9.202;2023-03-01T07:29:30;2.90;46.20
17208;DHT22;8720;48.488;9.202;2023-03-01T07:31:57;3.00;46.30
17208;DHT22;8720;48.488;9.202;2023-03-01T07:34:25;3.10;46.30
17208;DHT22;8720;48.488;9.202;2023-03-01T07:36:53;3.20;46.40
17208;DHT22;8720;48.488;9.202;2023-03-01T07:39:21;3.30;46.40
17208;DHT22;8720;48.488;9.202;2023-03-01T07:41:49;3.50;46.40
17208;DHT22;8720;48.488;9.202;2023-03-01T07:44:20;3.60;46.30
17208;DHT22;8720;48.488;9.202;2023-03-01T07:46:48;3.70;46.00
17208;DHT22;8720;48.488;9.202;2023-03-01T07:49:15;3.80;45.80
17208;DHT22;8720;48.488;9.202;2023-03-01T07:51:43;3.80;45.60
17208;DHT22;8720;48.488;9.202;2023-03-01T07:54:11;3.80;45.40
17208;DHT22;8720;48.488;9.202;2023-03-01T07:56:39;3.80;45.20
17208;DHT22;8720;48.488;9.202;2023-03-01T07:59:06;3.80;45.20
17208;DHT22;8720;48.488;9.202;2023-03-01T08:01:34;3.80;45.20
17208;DHT22;8720;48.488;9.202;2023-03-01T08:04:01;3.70;45.10
17208;DHT22;8720;48.488;9.202;2023-03-01T08:06:34;3.70;45.20
17208;DHT22;8720;48.488;9.202;2023-03-01T08:09:02;3.70;45.20
17208;DHT22;8720;48.488;9.202;2023-03-01T08:11:30;3.70;45.20
17208;DHT22;8720;48.488;9.202;2023-03-01T08:13:58;3.70;45.20
17208;DHT22;8720;48.488;9.202;2023-03-01T08:16:25;3.70;45.20
17208;DHT22;8720;48.488;9.202;2023-03-01T08:18:52;3.70;45.20
17208;DHT22;8720;48.488;9.202;2023-03-01T08:21:22;3.70;45.20
17208;DHT22;8720;48.488;9.202;2023-03-01T08:23:49;3.70;45.20
17208;DHT22;8720;48.488;9.202;2023-03-01T08:26:18;3.70;45.30
17208;DHT22;8720;48.488;9.202;2023-03-01T08:28:49;3.70;45.20
17208;DHT22;8720;48.488;9.202;2023-03-01T08:31:19;3.70;45.20
17208;DHT22;8720;48.488;9.202;2023-03-01T08:33:50;3.70;45.10
17208;DHT22;8720;48.488;9.202;2023-03-01T08:36:21;3.80;45.20
17208;DHT22;8720;48.488;9.202;2023-03-01T08:38:49;3.80;45.20
17208;DHT22;8720;48.488;9.202;2023-03-01T08:41:17;3.80;45.20
17208;DHT22;8720;48.488;9.202;2023-03-01T08:43:45;3.80;45.20
17208;DHT22;8720;48.488;9.202;2023-03-01T08:46:14;3.80;45.20
17208;DHT22;8720;48.488;9.202;2023-03-01T08:48:41;3.90;45.30
17208;DHT22;8720;48.488;9.202;2023-03-01T08:51:10;3.90;45.30
17208;DHT22;8720;48.488;9.202;2023-03-01T08:53:39;4.00;45.40
17208;DHT22;8720;48.488;9.202;2023-03-01T08:56:07;4.10;45.30
17208;DHT22;8720;48.488;9.202;2023-03-01T08:58:35;4.10;45.90
17208;DHT22;8720;48.488;9.202;2023-03-01T09:01:07;4.10;45.20
17208;DHT22;8720;48.488;9.202;2023-03-01T09:03:36;4.20;45.20
17208;DHT22;8720;48.488;9.202;2023-03-01T09:06:05;4.30;45.20
17208;DHT22;8720;48.488;9.202;2023-03-01T09:08:34;4.40;45.10
17208;DHT22;8720;48.488;9.202;2023-03-01T09:11:03;4.40;45.00
17208;DHT22;8720;48.488;9.202;2023-03-01T09:13:31;4.40;44.90
17208;DHT22;8720;48.488;9.202;2023-03-01T09:15:59;4.50;44.80
17208;DHT22;8720;48.488;9.202;2023-03-01T09:18:29;4.50;44.70
17208;DHT22;8720;48.488;9.202;2023-03-01T09:21:03;4.50;44.60
17208;DHT22;8720;48.488;9.202;2023-03-01T09:23:33;4.50;44.60
17208;DHT22;8720;48.488;9.202;2023-03-01T09:26:02;4.60;44.70
17208;DHT22;8720;48.488;9.202;2023-03-01T09:28:29;4.60;44.70
17208;DHT22;8720;48.488;9.202;2023-03-01T09:30:58;4.70;44.70
17208;DHT22;8720;48.488;9.202;2023-03-01T09:33:26;4.80;44.70
17208;DHT22;8720;48.488;9.202;2023-03-01T09:35:56;4.90;44.70
17208;DHT22;8720;48.488;9.202;2023-03-01T09:38:26;5.00;44.50
17208;DHT22;8720;48.488;9.202;2023-03-01T09:40:53;5.10;44.50
17208;DHT22;8720;48.488;9.202;2023-03-01T09:43:25;5.20;44.40
17208;DHT22;8720;48.488;9.202;2023-03-01T09:46:00;5.20;44.10
17208;DHT22;8720;48.488;9.202;2023-03-01T09:48:37;5.30;44.20
17208;DHT22;8720;48.488;9.202;2023-03-01T09:51:14;5.40;44.80
17208;DHT22;8720;48.488;9.202;2023-03-01T09:53:46;5.40;44.00
17208;DHT22;8720;48.488;9.202;2023-03-01T09:56:19;5.50;44.20
17208;DHT22;8720;48.488;9.202;2023-03-01T09:58:52;5.60;43.90
17208;DHT22;8720;48.488;9.202;2023-03-01T10:01:30;5.70;43.80
17208;DHT22;8720;48.488;9.202;2023-03-01T10:04:23;5.80;43.60
17208;DHT22;8720;48.488;9.202;2023-03-01T10:07:13;5.80;43.50
17208;DHT22;8720;48.488;9.202;2023-03-01T10:09:49;5.90;43.40
17208;DHT22;8720;48.488;9.202;2023-03-01T10:12:19;6.00;43.60
17208;DHT22;8720;48.488;9.202;2023-03-01T10:14:55;6.10;43.50
17208;DHT22;8720;48.488;9.202;2023-03-01T10:17:32;6.10;43.30
17208;DHT22;8720;48.488;9.202;2023-03-01T10:20:19;6.20;43.20
17208;DHT22;8720;48.488;9.202;2023-03-01T10:22:49;6.30;42.80
17208;DHT22;8720;48.488;9.202;2023-03-01T10:25:36;6.30;43.20
17208;DHT22;8720;48.488;9.202;2023-03-01T10:28:17;6.40;42.70
17208;DHT22;8720;48.488;9.202;2023-03-01T10:30:50;6.40;43.00
17208;DHT22;8720;48.488;9.202;2023-03-01T10:33:22;6.50;42.70
17208;DHT22;8720;48.488;9.202;2023-03-01T10:35:53;6.60;42.60
17208;DHT22;8720;48.488;9.202;2023-03-01T10:38:21;6.60;42.40
17208;DHT22;8720;48.488;9.202;2023-03-01T10:40:54;6.70;42.30
17208;DHT22;8720;48.488;9.202;2023-03-01T10:43:24;6.70;41.90
17208;DHT22;8720;48.488;9.202;2023-03-01T10:45:53;6.80;42.10
17208;DHT22;8720;48.488;9.202;2023-03-01T10:48:22;6.80;42.10
17208;DHT22;8720;48.488;9.202;2023-03-01T10:51:05;6.90;42.00
17208;DHT22;8720;48.488;9.202;2023-03-01T10:53:36;6.90;41.50
17208;DHT22;8720;48.488;9.202;2023-03-01T10:56:10;7.00;42.00
17208;DHT22;8720;48.488;9.202;2023-03-01T10:58:56;7.10;41.90
17208;DHT22;8720;48.488;9.202;2023-03-01T11:01:26;7.20;41.80
17208;DHT22;8720;48.488;9.202;2023-03-01T11:04:11;7.30;41.60
17208;DHT22;8720;48.488;9.202;2023-03-01T11:06:41;7.30;41.10
17208;DHT22;8720;48.488;9.202;2023-03-01T11:09:15;7.40;41.60
17208;DHT22;8720;48.488;9.202;2023-03-01T11:11:52;7.50;41.00
17208;DHT22;8720;48.488;9.202;2023-03-01T11:14:22;7.50;41.00
17208;DHT22;8720;48.488;9.202;2023-03-01T11:16:59;7.60;41.20
17208;DHT22;8720;48.488;9.202;2023-03-01T11:19:29;7.60;40.90
17208;DHT22;8720;48.488;9.202;2023-03-01T11:22:02;7.70;41.20
17208;DHT22;8720;48.488;9.202;2023-03-01T11:24:36;7.70;41.10
17208;DHT22;8720;48.488;9.202;2023-03-01T11:31:15;7.90;39.90
17208;DHT22;8720;48.488;9.202;2023-03-01T11:34:12;8.00;40.70
17208;DHT22;8720;48.488;9.202;2023-03-01T11:36:51;8.00;40.60
17208;DHT22;8720;48.488;9.202;2023-03-01T11:39:28;8.10;40.50
17208;DHT22;8720;48.488;9.202;2023-03-01T11:42:06;8.10;39.90
17208;DHT22;8720;48.488;9.202;2023-03-01T11:44:45;8.10;40.00
17208;DHT22;8720;48.488;9.202;2023-03-01T11:47:39;8.10;40.10
17208;DHT22;8720;48.488;9.202;2023-03-01T11:50:29;8.20;39.60
17208;DHT22;8720;48.488;9.202;2023-03-01T11:53:13;8.20;40.30
17208;DHT22;8720;48.488;9.202;2023-03-01T11:56:13;8.30;40.10
17208;DHT22;8720;48.488;9.202;2023-03-01T11:59:09;8.30;39.80
17208;DHT22;8720;48.488;9.202;2023-03-01T12:02:28;8.30;39.70
17208;DHT22;8720;48.488;9.202;2023-03-01T12:05:24;8.40;39.70
17208;DHT22;8720;48.488;9.202;2023-03-01T12:08:12;8.40;39.80
17208;DHT22;8720;48.488;9.202;2023-03-01T12:10:47;8.50;40.30
17208;DHT22;8720;48.488;9.202;2023-03-01T12:13:46;8.50;40.20
17208;DHT22;8720;48.488;9.202;2023-03-01T12:16:48;8.60;39.50
17208;DHT22;8720;48.488;9.202;2023-03-01T12:19:56;8.70;39.50
17208;DHT22;8720;48.488;9.202;2023-03-01T12:22:46;8.80;39.60
17208;DHT22;8720;48.488;9.202;2023-03-01T12:25:30;8.90;39.80
17208;DHT22;8720;48.488;9.202;2023-03-01T12:37:51;9.20;39.70
17208;DHT22;8720;48.488;9.202;2023-03-01T12:40:40;9.20;39.50
17208;DHT22;8720;48.488;9.202;2023-03-01T12:43:36;9.30;39.10
17208;DHT22;8720;48.488;9.202;2023-03-01T12:46:28;9.30;39.30
17208;DHT22;8720;48.488;9.202;2023-03-01T12:49:08;9.40;39.20
17208;DHT22;8720;48.488;9.202;2023-03-01T12:51:44;9.40;38.80
17208;DHT22;8720;48.488;9.202;2023-03-01T12:54:25;9.50;39.00
17208;DHT22;8720;48.488;9.202;2023-03-01T12:56:55;9.50;38.90
17208;DHT22;8720;48.488;9.202;2023-03-01T12:59:33;9.50;39.00
17208;DHT22;8720;48.488;9.202;2023-03-01T13:02:15;9.60;38.80
17208;DHT22;8720;48.488;9.202;2023-03-01T13:04:58;9.60;38.50
17208;DHT22;8720;48.488;9.202;2023-03-01T13:07:39;9.60;39.30
17208;DHT22;8720;48.488;9.202;2023-03-01T13:10:20;9.60;38.70
17208;DHT22;8720;48.488;9.202;2023-03-01T13:13:02;9.70;38.60
17208;DHT22;8720;48.488;9.202;2023-03-01T13:15:40;9.70;38.10
17208;DHT22;8720;48.488;9.202;2023-03-01T13:18:27;9.70;38.60
17208;DHT22;8720;48.488;9.202;2023-03-01T13:21:01;9.70;38.00
17208;DHT22;8720;48.488;9.202;2023-03-01T13:23:35;9.70;38.20
17208;DHT22;8720;48.488;9.202;2023-03-01T13:26:09;9.70;38.40
17208;DHT22;8720;48.488;9.202;2023-03-01T13:28:51;9.70;38.30
17208;DHT22;8720;48.488;9.202;2023-03-01T13:31:59;9.80;38.40
17208;DHT22;8720;48.488;9.202;2023-03-01T13:34:46;9.80;37.90
17208;DHT22;8720;48.488;9.202;2023-03-01T13:37:21;9.80;37.80
17208;DHT22;8720;48.488;9.202;2023-03-01T13:39:57;9.90;38.50
17208;DHT22;8720;48.488;9.202;2023-03-01T13:42:43;9.90;38.50
17208;DHT22;8720;48.488;9.202;2023-03-01T13:45:34;9.90;38.00
17208;DHT22;8720;48.488;9.202;2023-03-01T13:48:11;9.90;37.70
17208;DHT22;8720;48.488;9.202;2023-03-01T13:50:47;10.00;37.30
17208;DHT22;8720;48.488;9.202;2023-03-01T13:53:18;10.00;37.10
17208;DHT22;8720;48.488;9.202;2023-03-01T13:55:51;10.10;37.30
17208;DHT22;8720;48.488;9.202;2023-03-01T13:58:23;10.10;37.10
17208;DHT22;8720;48.488;9.202;2023-03-01T14:00:58;10.10;37.10
17208;DHT22;8720;48.488;9.202;2023-03-01T14:03:27;10.10;36.80
17208;DHT22;8720;48.488;9.202;2023-03-01T14:06:04;10.10;37.00
17208;DHT22;8720;48.488;9.202;2023-03-01T14:08:34;10.10;36.80
17208;DHT22;8720;48.488;9.202;2023-03-01T14:11:31;10.10;37.00
17208;DHT22;8720;48.488;9.202;2023-03-01T14:14:31;10.20;36.50
17208;DHT22;8720;48.488;9.202;2023-03-01T14:17:20;10.20;36.50
17208;DHT22;8720;48.488;9.202;2023-03-01T14:20:01;10.20;36.30
17208;DHT22;8720;48.488;9.202;2023-03-01T14:22:36;10.20;36.80
17208;DHT22;8720;48.488;9.202;2023-03-01T14:25:19;10.20;37.00
17208;DHT22;8720;48.488;9.202;2023-03-01T14:27:56;10.20;36.60
17208;DHT22;8720;48.488;9.202;2023-03-01T14:30:27;10.20;36.80
17208;DHT22;8720;48.488;9.202;2023-03-01T14:33:00;10.20;36.80
17208;DHT22;8720;48.488;9.202;2023-03-01T14:35:30;10.20;36.70
17208;DHT22;8720;48.488;9.202;2023-03-01T14:37:59;10.20;36.70
17208;DHT22;8720;48.488;9.202;2023-03-01T14:40:28;10.30;36.90
17208;DHT22;8720;48.488;9.202;2023-03-01T14:43:01;10.20;36.50
17208;DHT22;8720;48.488;9.202;2023-03-01T14:45:35;10.20;36.50
17208;DHT22;8720;48.488;9.202;2023-03-01T14:48:04;10.20;36.70
17208;DHT22;8720;48.488;9.202;2023-03-01T14:50:35;10.20;36.20
17208;DHT22;8720;48.488;9.202;2023-03-01T14:53:15;10.20;36.40
17208;DHT22;8720;48.488;9.202;2023-03-01T14:55:46;10.20;36.20
17208;DHT22;8720;48.488;9.202;2023-03-01T14:58:21;10.20;36.60
17208;DHT22;8720;48.488;9.202;2023-03-01T15:00:54;10.20;36.30
17208;DHT22;8720;48.488;9.202;2023-03-01T15:03:27;10.30;36.30
17208;DHT22;8720;48.488;9.202;2023-03-01T15:06:04;10.20;36.10
17208;DHT22;8720;48.488;9.202;2023-03-01T15:08:34;10.20;36.30
17208;DHT22;8720;48.488;9.202;2023-03-01T15:11:05;10.20;36.20
17208;DHT22;8720;48.488;9.202;2023-03-01T15:13:49;10.20;36.20
17208;DHT22;8720;48.488;9.202;2023-03-01T15:16:20;10.20;36.20
17208;DHT22;8720;48.488;9.202;2023-03-01T15:18:53;10.20;36.30
17208;DHT22;8720;48.488;9.202;2023-03-01T15:21:24;10.20;36.30
17208;DHT22;8720;48.488;9.202;2023-03-01T15:23:56;10.20;36.10
17208;DHT22;8720;48.488;9.202;2023-03-01T15:26:49;10.30;36.10
17208;DHT22;8720;48.488;9.202;2023-03-01T15:29:24;10.30;36.30
17208;DHT22;8720;48.488;9.202;2023-03-01T15:31:57;10.20;36.10
17208;DHT22;8720;48.488;9.202;2023-03-01T15:34:27;10.20;36.10
17208;DHT22;8720;48.488;9.202;2023-03-01T15:36:57;10.20;36.20
17208;DHT22;8720;48.488;9.202;2023-03-01T15:39:31;10.10;36.10
17208;DHT22;8720;48.488;9.202;2023-03-01T15:42:04;10.10;36.00
17208;DHT22;8720;48.488;9.202;2023-03-01T15:44:35;10.10;36.20
17208;DHT22;8720;48.488;9.202;2023-03-01T15:47:21;10.00;36.20
17208;DHT22;8720;48.488;9.202;2023-03-01T15:49:52;10.00;36.00
17208;DHT22;8720;48.488;9.202;2023-03-01T15:52:23;9.90;37.00
17208;DHT22;8720;48.488;9.202;2023-03-01T15:54:56;9.90;37.20
17208;DHT22;8720;48.488;9.202;2023-03-01T15:57:26;9.80;37.00
17208;DHT22;8720;48.488;9.202;2023-03-01T15:59:55;9.80;37.20
17208;DHT22;8720;48.488;9.202;2023-03-01T16:02:22;9.70;37.10
17208;DHT22;8720;48.488;9.202;2023-03-01T16:04:51;9.70;37.10
17208;DHT22;8720;48.488;9.202;2023-03-01T16:07:19;9.60;37.10
17208;DHT22;8720;48.488;9.202;2023-03-01T16:09:46;9.60;37.10
17208;DHT22;8720;48.488;9.202;2023-03-01T16:12:15;9.60;37.20
17208;DHT22;8720;48.488;9.202;2023-03-01T16:14:46;9.60;37.10
17208;DHT22;8720;48.488;9.202;2023-03-01T16:17:15;9.50;37.20
17208;DHT22;8720;48.488;9.202;2023-03-01T16:19:42;9.50;37.20
17208;DHT22;8720;48.488;9.202;2023-03-01T16:22:10;9.40;37.20
17208;DHT22;8720;48.488;9.202;2023-03-01T16:24:37;9.40;37.20
17208;DHT22;8720;48.488;9.202;2023-03-01T16:27:06;9.40;37.20
17208;DHT22;8720;48.488;9.202;2023-03-01T16:29:33;9.30;37.10
17208;DHT22;8720;48.488;9.202;2023-03-01T16:32:01;9.30;37.20
17208;DHT22;8720;48.488;9.202;2023-03-01T16:34:29;9.30;37.30
17208;DHT22;8720;48.488;9.202;2023-03-01T16:36:57;9.20;37.20
17208;DHT22;8720;48.488;9.202;2023-03-01T16:39:24;9.20;37.20
17208;DHT22;8720;48.488;9.202;2023-03-01T16:41:51;9.20;37.20
17208;DHT22;8720;48.488;9.202;2023-03-01T16:44:18;9.20;37.30
17208;DHT22;8720;48.488;9.202;2023-03-01T16:46:46;9.10;37.20
17208;DHT22;8720;48.488;9.202;2023-03-01T16:49:13;9.10;37.30
17208;DHT22;8720;48.488;9.202;2023-03-01T16:51:42;9.10;37.40